Time;durP1;ratioP1;P1;durP2;ratioP2;P2;SDS_P1;SDS_P2;PMS_P1;PMS_P2;Temp;Humidity;BMP_temperature;BMP_pressure;BME280_temperature;BME280_humidity;BME280_pressure;Samples;Min_cycle;Max_cycle;Signal;HPM_P1;HPM_P2
2022/04/16 00:02:11;;;;;;;22.42;16.90;;;11.80;99.90;;;;;;4921044;29;20408;-68
2022/04/16 00:04:39;;;;;;;21.95;16.00;;;11.80;99.90;;;;;;4925531;29;20047;-68
2022/04/16 00:07:06;;;;;;;19.30;16.83;;;11.70;99.90;;;;;;4924684;29;20059;-68
2022/04/16 00:09:32;;;;;;;20.45;16.15;;;11.60;99.90;;;;;;4920423;29;20052;-68
2022/04/16 00:11:59;;;;;;;23.80;16.98;;;11.50;99.90;;;;;;4926982;29;20500;-68
2022/04/16 00:14:26;;;;;;;18.67;15.52;;;11.50;99.90;;;;;;4926185;29;20059;-68
2022/04/16 00:16:53;;;;;;;20.92;15.00;;;11.40;99.90;;;;;;4927599;29;20062;-68
2022/04/16 00:19:20;;;;;;;17.95;14.65;;;11.40;99.90;;;;;;4920084;29;20059;-69
2022/04/16 00:21:47;;;;;;;19.30;15.40;;;11.40;99.90;;;;;;4915774;29;20048;-68
2022/04/16 00:24:14;;;;;;;22.17;15.40;;;11.40;99.90;;;;;;4924377;29;20048;-68
2022/04/16 00:26:42;;;;;;;17.55;14.57;;;11.40;99.90;;;;;;4899199;29;20570;-68
2022/04/16 00:29:12;;;;;;;18.13;15.20;;;11.30;99.90;;;;;;4916549;29;20056;-67
2022/04/16 00:31:39;;;;;;;;;;;11.30;99.90;;;;;;4916387;29;20071;-68
2022/04/16 00:34:06;;;;;;;18.58;14.95;;;11.20;99.90;;;;;;4915517;29;20010;-68
2022/04/16 00:36:33;;;;;;;18.45;14.07;;;11.20;99.90;;;;;;4915168;29;20044;-67
2022/04/16 00:39:00;;;;;;;21.05;14.52;;;11.20;99.90;;;;;;4914129;29;20055;-68
2022/04/16 00:41:27;;;;;;;20.63;14.48;;;11.10;99.90;;;;;;4930156;29;20052;-68
2022/04/16 00:43:54;;;;;;;21.70;14.63;;;11.10;99.90;;;;;;4916185;29;20044;-69
2022/04/16 00:46:20;;;;;;;18.52;14.82;;;11.00;99.90;;;;;;4915614;29;20051;-67
2022/04/16 00:48:49;;;;;;;20.63;14.55;;;11.00;99.90;;;;;;4916473;29;20066;-67
2022/04/16 00:51:16;;;;;;;17.58;12.60;;;11.00;99.90;;;;;;4915632;29;20055;-69
2022/04/16 00:53:49;;;;;;;19.70;15.40;;;11.00;99.90;;;;;;4899800;29;20071;-68
2022/04/16 00:56:16;;;;;;;19.13;14.07;;;10.90;99.90;;;;;;4914887;29;20067;-68
2022/04/16 00:58:43;;;;;;;18.33;13.57;;;10.90;99.90;;;;;;4915276;29;20051;-67
2022/04/16 01:01:09;;;;;;;21.08;13.77;;;10.80;99.90;;;;;;4915466;29;20060;-66
2022/04/16 01:03:39;;;;;;;21.85;15.48;;;10.80;99.90;;;;;;4898404;29;20437;-68
2022/04/16 01:06:06;;;;;;;18.65;12.85;;;10.80;99.90;;;;;;4906848;29;20404;-67
2022/04/16 01:08:33;;;;;;;21.85;14.68;;;10.80;99.90;;;;;;4914554;29;20055;-67
2022/04/16 01:11:00;;;;;;;18.40;14.25;;;10.80;99.90;;;;;;4915482;29;20492;-69
2022/04/16 01:13:27;;;;;;;19.23;13.55;;;10.70;99.90;;;;;;4916097;29;20048;-68
2022/04/16 01:15:54;;;;;;;22.35;13.77;;;10.70;99.90;;;;;;4915853;29;20056;-68
2022/04/16 01:18:21;;;;;;;17.13;13.35;;;10.70;99.90;;;;;;4915925;29;20052;-68
2022/04/16 01:20:48;;;;;;;19.95;14.82;;;10.60;99.90;;;;;;4916416;29;20060;-67
2022/04/16 01:23:15;;;;;;;23.13;15.15;;;10.60;99.90;;;;;;4913923;29;20051;-69
2022/04/16 01:25:42;;;;;;;21.90;15.90;;;10.50;99.90;;;;;;4925312;29;20063;-70
2022/04/16 01:28:10;;;;;;;27.10;16.95;;;10.50;99.90;;;;;;4915642;29;20060;-67
2022/04/16 01:30:37;;;;;;;25.15;17.23;;;10.50;99.90;;;;;;4913650;29;20059;-68
2022/04/16 01:33:04;;;;;;;26.17;17.23;;;10.40;99.90;;;;;;4915620;29;20398;-68
2022/04/16 01:35:32;;;;;;;29.92;20.58;;;10.40;99.90;;;;;;4915399;29;20424;-68
2022/04/16 01:37:59;;;;;;;25.75;16.88;;;10.40;99.90;;;;;;4916689;29;20052;-69
2022/04/16 01:40:26;;;;;;;25.00;17.35;;;10.30;99.90;;;;;;4920004;29;20052;-66
2022/04/16 01:42:56;;;;;;;28.75;18.33;;;10.30;99.90;;;;;;4919888;29;20080;-68
2022/04/16 01:45:23;;;;;;;31.05;19.63;;;10.30;99.90;;;;;;4920135;29;20129;-67
2022/04/16 01:47:51;;;;;;;31.63;20.92;;;10.20;99.90;;;;;;4921268;29;20087;-67
2022/04/16 01:50:18;;;;;;;32.63;21.50;;;10.20;99.90;;;;;;4920312;29;20044;-68
2022/04/16 01:52:46;;;;;;;34.25;22.10;;;10.20;99.90;;;;;;4921557;29;20043;-73
2022/04/16 01:55:13;;;;;;;32.40;21.05;;;10.20;99.90;;;;;;4919837;29;20496;-67
2022/04/16 01:57:40;;;;;;;40.40;22.77;;;10.10;99.90;;;;;;4919956;29;20360;-67
2022/04/16 02:00:08;;;;;;;34.63;20.30;;;10.10;99.90;;;;;;4921208;29;20055;-67
2022/04/16 02:02:36;;;;;;;39.05;22.98;;;10.10;99.90;;;;;;4921065;29;20058;-67
2022/04/16 02:05:05;;;;;;;43.47;23.33;;;10.00;99.90;;;;;;4920303;29;20051;-67
2022/04/16 02:07:32;;;;;;;46.33;26.08;;;10.00;99.90;;;;;;4921164;29;20111;-67
2022/04/16 02:10:00;;;;;;;44.15;25.77;;;10.00;99.90;;;;;;4920667;29;20044;-68
2022/04/16 02:12:27;;;;;;;49.10;26.55;;;10.00;99.90;;;;;;4919663;29;20051;-68
2022/04/16 02:14:54;;;;;;;45.75;24.80;;;9.90;99.90;;;;;;4920426;29;20103;-67
2022/04/16 02:17:21;;;;;;;47.78;25.95;;;9.90;99.90;;;;;;4919570;29;20390;-67
2022/04/16 02:19:48;;;;;;;49.08;26.05;;;9.90;99.90;;;;;;4918687;29;20384;-68
2022/04/16 02:22:18;;;;;;;52.38;27.38;;;9.90;99.90;;;;;;4919870;29;20060;-67
2022/04/16 02:24:46;;;;;;;51.92;28.10;;;9.90;99.90;;;;;;4919730;29;20052;-68
2022/04/16 02:27:13;;;;;;;48.65;27.70;;;9.90;99.90;;;;;;4920664;29;20176;-67
2022/04/16 02:29:40;;;;;;;53.78;28.83;;;9.90;99.90;;;;;;4903707;29;20051;-67
2022/04/16 02:32:08;;;;;;;58.63;32.20;;;9.80;99.90;;;;;;4913378;29;20044;-69
2022/04/16 02:34:35;;;;;;;59.42;30.30;;;9.80;99.90;;;;;;4918443;29;20052;-67
2022/04/16 02:37:02;;;;;;;61.65;33.78;;;9.80;99.90;;;;;;4919566;29;20059;-66
2022/04/16 02:39:29;;;;;;;68.57;35.42;;;9.80;99.90;;;;;;4920101;29;20048;-66
2022/04/16 02:41:55;;;;;;;65.10;36.28;;;9.80;99.90;;;;;;4920873;29;20063;-66
2022/04/16 02:47:08;;;;;;;65.80;35.53;;;9.80;99.90;;;;;;4919428;29;20052;-66
2022/04/16 02:49:39;;;;;;;62.83;34.78;;;9.80;99.90;;;;;;4918354;29;20441;-67
2022/04/16 02:52:07;;;;;;;65.55;32.15;;;9.80;99.90;;;;;;4916185;29;20448;-72
2022/04/16 02:54:35;;;;;;;64.40;33.33;;;9.80;99.90;;;;;;4916434;29;20071;-66
2022/04/16 02:57:03;;;;;;;70.22;36.35;;;9.70;99.90;;;;;;4916531;29;20503;-68
2022/04/16 02:59:35;;;;;;;66.68;36.85;;;9.70;99.90;;;;;;4916378;29;20045;-67
2022/04/16 03:02:02;;;;;;;65.22;34.40;;;9.70;99.90;;;;;;4915299;29;20088;-67
2022/04/16 03:04:29;;;;;;;61.70;33.33;;;9.60;99.90;;;;;;4917721;29;20436;-67
2022/04/16 03:06:56;;;;;;;64.90;35.25;;;9.60;99.90;;;;;;4900685;29;20056;-73
2022/04/16 03:09:23;;;;;;;62.92;34.30;;;9.60;99.90;;;;;;4915825;29;20044;-67
2022/04/16 03:11:50;;;;;;;62.42;33.33;;;9.60;99.90;;;;;;4910575;29;20047;-67
2022/04/16 03:19:48;;;;;;;70.47;36.03;;;9.50;99.90;;;;;;4929917;29;20559;-67
2022/04/16 03:22:15;;;;;;;64.65;36.28;;;9.50;99.90;;;;;;4915842;29;20408;-66
2022/04/16 03:24:42;;;;;;;75.68;35.78;;;9.40;99.90;;;;;;4915858;29;20055;-66
2022/04/16 03:27:09;;;;;;;69.30;35.97;;;9.40;99.90;;;;;;4916058;29;20048;-66
2022/04/16 03:29:36;;;;;;;66.97;36.53;;;9.40;99.90;;;;;;4917049;29;20050;-66
2022/04/16 03:32:03;;;;;;;68.13;36.92;;;9.40;99.90;;;;;;4916825;29;20056;-66
2022/04/16 03:34:31;;;;;;;75.13;40.67;;;9.40;99.90;;;;;;4915913;29;20123;-68
2022/04/16 03:36:57;;;;;;;72.32;39.42;;;9.40;99.90;;;;;;4914181;29;20044;-67
2022/04/16 03:39:24;;;;;;;72.35;38.85;;;9.30;99.90;;;;;;4916124;29;20052;-67
2022/04/16 03:41:51;;;;;;;76.03;40.50;;;9.30;99.90;;;;;;4915467;29;20681;-67
2022/04/16 03:44:18;;;;;;;78.47;44.25;;;9.30;99.90;;;;;;4915227;29;20052;-68
2022/04/16 03:46:45;;;;;;;80.82;40.97;;;9.30;99.90;;;;;;4914791;29;20067;-68
2022/04/16 03:49:12;;;;;;;80.97;42.78;;;9.20;99.90;;;;;;4916003;29;20062;-73
2022/04/16 03:51:39;;;;;;;77.32;41.10;;;9.20;99.90;;;;;;4915613;29;20062;-67
2022/04/16 04:02:23;;;;;;;85.88;44.70;;;9.20;99.90;;;;;;4916705;29;20063;-67
2022/04/16 04:04:50;;;;;;;83.05;44.42;;;9.20;99.90;;;;;;4915133;29;20124;-67
2022/04/16 04:07:17;;;;;;;83.50;44.58;;;9.20;99.90;;;;;;4916524;29;20062;-67
2022/04/16 04:09:44;;;;;;;79.85;44.80;;;9.20;99.90;;;;;;4899464;29;20060;-67
2022/04/16 04:12:12;;;;;;;79.38;42.72;;;9.20;99.90;;;;;;4930899;29;20052;-67
2022/04/16 04:14:43;;;;;;;82.55;42.78;;;9.20;99.90;;;;;;4917285;29;20044;-67
2022/04/16 04:17:10;;;;;;;84.20;45.47;;;9.20;99.90;;;;;;4915746;29;20055;-68
2022/04/16 04:19:38;;;;;;;87.65;47.15;;;9.20;99.90;;;;;;4930989;29;20051;-67
2022/04/16 04:22:06;;;;;;;83.53;44.35;;;9.10;99.90;;;;;;4912928;29;20062;-66
2022/04/16 04:24:33;;;;;;;129.65;76.95;;;9.10;99.90;;;;;;4913320;29;20059;-59
2022/04/16 04:27:00;;;;;;;123.80;71.95;;;9.10;99.90;;;;;;4914776;29;20047;-69
2022/04/16 04:29:27;;;;;;;98.97;52.35;;;9.10;99.90;;;;;;4916873;29;20048;-66
2022/04/16 04:31:55;;;;;;;94.78;50.95;;;9.10;99.90;;;;;;4921702;29;20404;-66
2022/04/16 04:34:21;;;;;;;82.55;46.10;;;9.00;99.90;;;;;;4914158;29;20040;-66
2022/04/16 04:36:49;;;;;;;85.90;48.78;;;9.00;99.90;;;;;;4914147;29;20055;-68
2022/04/16 04:39:21;;;;;;;84.68;45.42;;;9.00;99.90;;;;;;4912973;29;20044;-67
2022/04/16 04:41:48;;;;;;;81.05;43.63;;;9.00;99.90;;;;;;4914859;29;20408;-68
2022/04/16 04:44:15;;;;;;;86.88;47.53;;;9.00;99.90;;;;;;4914704;29;20480;-67
2022/04/16 04:46:42;;;;;;;84.90;46.67;;;8.90;99.90;;;;;;4914107;29;20060;-67
2022/04/16 04:49:11;;;;;;;87.90;49.38;;;8.90;99.90;;;;;;4915536;29;20067;-67
2022/04/16 04:51:41;;;;;;;93.68;50.72;;;8.90;99.90;;;;;;4914508;29;20051;-66
2022/04/16 04:54:08;;;;;;;86.15;45.55;;;8.90;99.90;;;;;;4898883;29;20067;-67
2022/04/16 04:56:35;;;;;;;86.10;47.13;;;8.80;99.90;;;;;;4914507;29;20052;-66
2022/04/16 04:59:02;;;;;;;83.63;45.97;;;8.80;99.90;;;;;;4914199;29;20420;-68
2022/04/16 05:01:29;;;;;;;82.63;42.38;;;8.80;99.90;;;;;;4913235;29;20047;-66
2022/04/16 05:03:56;;;;;;;82.75;43.58;;;8.80;99.90;;;;;;4914183;29;20056;-66
2022/04/16 05:06:23;;;;;;;82.57;45.17;;;8.80;99.90;;;;;;4915585;29;20150;-66
2022/04/16 05:08:51;;;;;;;77.25;42.25;;;8.80;99.90;;;;;;4915053;29;20054;-67
2022/04/16 05:11:18;;;;;;;82.10;44.63;;;8.80;99.90;;;;;;4914721;29;20056;-66
2022/04/16 05:13:44;;;;;;;84.57;45.08;;;8.80;99.90;;;;;;4915157;29;20063;-66
2022/04/16 05:16:12;;;;;;;90.32;46.28;;;8.80;99.90;;;;;;4914472;29;20048;-66
2022/04/16 05:18:41;;;;;;;79.18;42.55;;;8.80;99.90;;;;;;4915360;29;20041;-66
2022/04/16 05:21:08;;;;;;;82.70;43.72;;;8.80;99.90;;;;;;4914583;29;20412;-67
2022/04/16 05:23:39;;;;;;;87.70;44.42;;;8.80;99.90;;;;;;4914090;29;20052;-66
2022/04/16 05:26:10;;;;;;;88.07;47.40;;;8.80;99.90;;;;;;4914344;29;20054;-70
2022/04/16 05:28:37;;;;;;;89.93;47.35;;;8.80;99.90;;;;;;4909593;29;20048;-67
2022/04/16 05:31:05;;;;;;;84.65;46.83;;;8.80;99.90;;;;;;4895101;29;20049;-67
2022/04/16 05:36:18;;;;;;;82.10;45.17;;;8.80;99.90;;;;;;4912036;29;20052;-66
2022/04/16 05:38:45;;;;;;;90.47;46.83;;;8.80;99.90;;;;;;4914796;29;20078;-66
2022/04/16 05:41:12;;;;;;;87.50;48.40;;;8.90;99.90;;;;;;4913969;29;20054;-66
2022/04/16 05:43:39;;;;;;;88.65;50.13;;;8.90;99.90;;;;;;4913939;29;20055;-66
2022/04/16 05:46:06;;;;;;;81.30;44.38;;;9.00;99.90;;;;;;4902237;29;20048;-67
2022/04/16 05:48:33;;;;;;;87.68;46.50;;;9.00;99.90;;;;;;4914505;29;20056;-67
2022/04/16 05:50:59;;;;;;;80.55;46.40;;;9.00;99.90;;;;;;4914292;29;20049;-67
2022/04/16 05:53:26;;;;;;;80.53;45.42;;;9.00;99.90;;;;;;4918276;29;20380;-67
2022/04/16 05:55:53;;;;;;;76.47;46.40;;;9.10;99.90;;;;;;4922546;29;20063;-67
2022/04/16 05:58:20;;;;;;;78.78;46.08;;;9.10;99.90;;;;;;4913774;29;20048;-67
2022/04/16 06:00:48;;;;;;;85.00;50.65;;;9.20;99.90;;;;;;4913918;29;20139;-69
2022/04/16 06:03:19;;;;;;;77.85;44.92;;;9.20;99.90;;;;;;4914620;29;20481;-67
2022/04/16 06:05:46;;;;;;;82.97;49.95;;;9.30;99.90;;;;;;4913533;29;20048;-67
2022/04/16 06:08:13;;;;;;;77.45;45.10;;;9.30;99.90;;;;;;4915751;29;20382;-67
2022/04/16 06:10:40;;;;;;;72.25;44.70;;;9.30;99.90;;;;;;4913271;29;20098;-67
2022/04/16 06:13:09;;;;;;;;;;;9.40;99.90;;;;;;4915383;29;20492;-67
2022/04/16 06:15:39;;;;;;;75.22;45.83;;;9.40;99.90;;;;;;4913200;29;20382;-66
2022/04/16 06:18:05;;;;;;;75.05;45.63;;;9.40;99.90;;;;;;4911356;29;20059;-67
2022/04/16 06:20:32;;;;;;;80.03;47.58;;;9.50;99.90;;;;;;4914267;29;20060;-69
2022/04/16 06:22:59;;;;;;;76.28;45.33;;;9.60;99.90;;;;;;4914471;29;20059;-67
2022/04/16 06:25:26;;;;;;;78.13;46.75;;;9.70;99.90;;;;;;4915954;29;20051;-67
2022/04/16 06:27:53;;;;;;;79.00;48.35;;;9.80;99.90;;;;;;4918068;29;20388;-67
2022/04/16 06:30:20;;;;;;;72.75;44.00;;;9.80;99.90;;;;;;4917852;29;20511;-66
2022/04/16 06:32:46;;;;;;;75.70;47.35;;;9.90;99.90;;;;;;4917542;29;20048;-72
2022/04/16 06:35:13;;;;;;;75.35;48.97;;;9.90;99.90;;;;;;4916911;29;20488;-67
2022/04/16 06:37:41;;;;;;;81.30;47.53;;;9.90;99.90;;;;;;4915418;29;20088;-71
2022/04/16 06:40:10;;;;;;;70.53;45.80;;;10.00;99.90;;;;;;4916414;29;20048;-67
2022/04/16 06:42:37;;;;;;;74.43;47.88;;;10.10;99.90;;;;;;4914546;29;20504;-66
2022/04/16 06:45:08;;;;;;;78.43;49.42;;;10.10;99.90;;;;;;4900844;29;20103;-67
2022/04/16 06:47:35;;;;;;;81.15;50.78;;;10.10;99.90;;;;;;4932547;29;20048;-67
2022/04/16 06:50:03;;;;;;;80.13;52.08;;;10.00;99.90;;;;;;4917975;29;20052;-68
2022/04/16 06:52:30;;;;;;;83.05;53.30;;;10.10;99.90;;;;;;4901176;29;20416;-66
2022/04/16 06:54:57;;;;;;;82.78;52.00;;;10.10;99.90;;;;;;4915435;29;20067;-66
2022/04/16 06:57:27;;;;;;;82.18;53.78;;;10.20;99.90;;;;;;4916755;29;20044;-66
2022/04/16 07:00:05;;;;;;;80.22;50.80;;;10.30;99.90;;;;;;4916213;29;20048;-66
2022/04/16 07:02:33;;;;;;;88.40;52.55;;;10.30;99.90;;;;;;4916349;29;20056;-65
2022/04/16 07:05:01;;;;;;;91.55;54.78;;;10.30;99.90;;;;;;4915339;29;20131;-66
2022/04/16 07:07:29;;;;;;;84.13;53.60;;;10.30;99.90;;;;;;4916978;29;20086;-67
2022/04/16 07:09:56;;;;;;;79.60;50.20;;;10.40;99.90;;;;;;4917293;29;20056;-67
2022/04/16 07:12:23;;;;;;;78.90;50.08;;;10.50;99.90;;;;;;4915726;29;20056;-67
2022/04/16 07:14:50;;;;;;;84.03;53.53;;;10.50;99.90;;;;;;4915020;29;20102;-68
2022/04/16 07:17:19;;;;;;;94.95;64.25;;;10.40;99.90;;;;;;4912724;29;20130;-69
2022/04/16 07:19:46;;;;;;;87.65;57.72;;;10.50;99.90;;;;;;4897871;29;20049;-72
2022/04/16 07:22:13;;;;;;;82.47;53.30;;;10.60;99.90;;;;;;4925922;29;20432;-69
2022/04/16 07:24:42;;;;;;;136.20;61.20;;;10.70;99.90;;;;;;4917793;29;20044;-69
2022/04/16 07:27:09;;;;;;;;;;;10.60;99.90;;;;;;4916576;29;20051;-70
2022/04/16 07:29:36;;;;;;;77.60;51.15;;;10.50;99.90;;;;;;4916867;29;19938;-69
2022/04/16 07:32:03;;;;;;;80.78;53.58;;;10.60;99.90;;;;;;4916411;29;20052;-71
2022/04/16 07:34:30;;;;;;;83.13;55.38;;;10.60;99.90;;;;;;4917195;29;20041;-69
2022/04/16 07:36:57;;;;;;;86.85;54.17;;;10.70;99.90;;;;;;4916729;29;20131;-69
2022/04/16 07:39:24;;;;;;;89.32;58.83;;;10.90;99.90;;;;;;4916445;29;20051;-69
2022/04/16 07:41:51;;;;;;;83.95;55.13;;;10.90;99.90;;;;;;4900163;29;20048;-69
2022/04/16 07:44:18;;;;;;;90.53;59.30;;;11.00;99.90;;;;;;4900361;29;20137;-69
2022/04/16 07:46:45;;;;;;;94.80;64.40;;;11.00;99.90;;;;;;4917075;29;20063;-69
2022/04/16 07:49:12;;;;;;;87.78;59.33;;;11.00;99.90;;;;;;4915601;29;20044;-69
2022/04/16 07:51:39;;;;;;;89.00;58.53;;;11.00;99.90;;;;;;4915371;29;20059;-69
2022/04/16 07:54:06;;;;;;;86.78;60.42;;;11.10;99.90;;;;;;4916135;29;20389;-68
2022/04/16 07:56:33;;;;;;;122.13;83.95;;;11.20;99.90;;;;;;4916603;29;20060;-65
2022/04/16 07:59:00;;;;;;;87.90;60.53;;;11.10;99.90;;;;;;4917314;29;20048;-65
2022/04/16 08:01:27;;;;;;;88.05;58.33;;;11.10;99.90;;;;;;4916989;29;20111;-65
2022/04/16 08:03:55;;;;;;;83.78;57.28;;;11.20;99.90;;;;;;4917200;29;20106;-63
2022/04/16 08:06:22;;;;;;;90.43;61.22;;;11.40;99.90;;;;;;4916027;29;20052;-64
2022/04/16 08:08:49;;;;;;;91.43;58.85;;;11.40;99.90;;;;;;4916778;29;20464;-64
2022/04/16 08:11:17;;;;;;;76.90;57.47;;;11.60;99.90;;;;;;4917511;29;20206;-65
2022/04/16 08:13:43;;;;;;;83.72;57.20;;;11.70;99.90;;;;;;4915836;29;20523;-63
2022/04/16 08:16:10;;;;;;;83.82;59.38;;;11.80;99.90;;;;;;4917266;29;20381;-63
2022/04/16 08:18:37;;;;;;;76.30;54.35;;;11.80;99.90;;;;;;4915406;29;20054;-64
2022/04/16 08:21:04;;;;;;;76.97;55.95;;;11.90;99.90;;;;;;4916979;29;20119;-64
2022/04/16 08:23:33;;;;;;;77.75;56.13;;;11.90;99.90;;;;;;4915462;29;20112;-63
2022/04/16 08:26:00;;;;;;;76.22;53.28;;;12.00;99.90;;;;;;4900513;29;20052;-64
2022/04/16 08:28:27;;;;;;;70.40;53.55;;;12.20;99.90;;;;;;4900172;29;20059;-65
2022/04/16 08:30:54;;;;;;;72.70;52.67;;;12.30;99.90;;;;;;4900186;29;20060;-64
2022/04/16 08:33:22;;;;;;;69.93;51.47;;;12.40;99.90;;;;;;4915590;29;20123;-64
2022/04/16 08:35:49;;;;;;;81.50;56.38;;;12.40;99.90;;;;;;4915204;29;20520;-63
2022/04/16 08:38:16;;;;;;;71.53;51.13;;;12.50;99.90;;;;;;4916014;29;20056;-64
2022/04/16 08:40:43;;;;;;;67.93;51.25;;;12.60;99.90;;;;;;4916631;29;20140;-64
2022/04/16 08:43:13;;;;;;;65.03;47.38;;;12.70;99.90;;;;;;4915895;29;20052;-69
2022/04/16 08:45:40;;;;;;;70.07;51.17;;;12.80;99.90;;;;;;4931053;29;20086;-60
2022/04/16 08:48:08;;;;;;;63.17;48.55;;;13.00;99.90;;;;;;4915208;29;20052;-60
2022/04/16 08:50:36;;;;;;;66.63;48.63;;;13.10;99.90;;;;;;4915469;29;20066;-65
2022/04/16 08:53:02;;;;;;;63.13;47.35;;;13.20;99.90;;;;;;4914482;29;20044;-63
2022/04/16 08:55:29;;;;;;;70.72;52.40;;;13.20;99.90;;;;;;4914558;29;20063;-70
2022/04/16 08:57:56;;;;;;;69.03;52.38;;;13.30;99.90;;;;;;4900363;29;20488;-69
2022/04/16 09:00:23;;;;;;;55.03;43.22;;;13.30;99.90;;;;;;4915031;29;20056;-65
2022/04/16 09:02:56;;;;;;;53.13;42.00;;;13.40;99.90;;;;;;4914156;29;20048;-66
2022/04/16 09:05:24;;;;;;;55.97;45.10;;;13.50;99.90;;;;;;4914835;29;20059;-65
2022/04/16 09:07:53;;;;;;;61.22;43.90;;;13.50;99.90;;;;;;4914769;29;20055;-69
2022/04/16 09:10:20;;;;;;;58.95;45.55;;;13.60;99.90;;;;;;4915869;29;20044;-68
2022/04/16 09:12:52;;;;;;;53.38;42.53;;;13.50;99.90;;;;;;4915118;29;20400;-66
2022/04/16 09:15:19;;;;;;;51.00;41.22;;;13.60;99.90;;;;;;4913153;29;20048;-65
2022/04/16 09:18:05;;;;;;;52.85;41.05;;;13.70;99.90;;;;;;4914710;29;20051;-66
2022/04/16 09:20:36;;;;;;;58.03;44.45;;;13.70;99.90;;;;;;4915950;29;20056;-74
2022/04/16 09:23:24;;;;;;;52.53;41.85;;;13.80;99.90;;;;;;4914771;29;20074;-66
2022/04/16 09:25:51;;;;;;;48.65;39.90;;;14.00;99.90;;;;;;4915481;29;20048;-69
2022/04/16 09:28:20;;;;;;;57.38;41.45;;;14.00;99.90;;;;;;4914045;29;20048;-63
2022/04/16 09:30:51;;;;;;;51.95;39.78;;;14.00;99.90;;;;;;4914587;29;20063;-65
2022/04/16 09:33:18;;;;;;;47.53;37.88;;;14.20;99.90;;;;;;4913952;29;20059;-66
2022/04/16 09:35:47;;;;;;;45.10;36.83;;;14.30;99.90;;;;;;4897847;29;20127;-64
2022/04/16 09:38:14;;;;;;;46.50;34.92;;;14.30;99.90;;;;;;4915466;29;20056;-67
2022/04/16 09:40:44;;;;;;;42.22;34.58;;;14.20;99.90;;;;;;4914160;29;20060;-63
2022/04/16 09:43:11;;;;;;;45.78;38.65;;;14.30;99.90;;;;;;4913987;29;20071;-66
2022/04/16 09:45:39;;;;;;;65.22;51.63;;;14.30;99.90;;;;;;4915813;29;20048;-65
2022/04/16 09:48:12;;;;;;;44.53;35.40;;;14.40;99.90;;;;;;4914377;29;20052;-67
2022/04/16 09:50:40;;;;;;;41.63;35.00;;;14.50;99.90;;;;;;4914354;29;20063;-66
2022/04/16 09:53:07;;;;;;;38.33;32.37;;;14.70;99.90;;;;;;4915803;29;20060;-65
2022/04/16 09:55:34;;;;;;;34.20;28.85;;;14.60;99.90;;;;;;4915344;29;20056;-65
2022/04/16 09:58:02;;;;;;;35.47;30.33;;;14.60;99.90;;;;;;4913781;29;20052;-71
2022/04/16 10:00:31;;;;;;;37.45;31.83;;;14.70;99.90;;;;;;4901467;29;20060;-69
2022/04/16 10:02:59;;;;;;;36.92;29.75;;;14.70;99.90;;;;;;4918735;29;20048;-71
2022/04/16 10:05:26;;;;;;;36.47;28.88;;;14.80;99.90;;;;;;4916550;29;20091;-70
2022/04/16 10:07:53;;;;;;;36.97;29.40;;;14.90;99.90;;;;;;4919010;29;20052;-73
2022/04/16 10:10:28;;;;;;;35.75;30.50;;;14.90;99.90;;;;;;4917951;29;20052;-75
2022/04/16 10:13:00;;;;;;;36.72;32.55;;;15.00;99.90;;;;;;4917879;29;20416;-75
2022/04/16 10:15:57;;;;;;;33.95;29.65;;;15.10;99.90;;;;;;4917734;29;20103;-75
2022/04/16 10:18:24;;;;;;;33.80;29.20;;;15.10;99.90;;;;;;4914616;29;20091;-74
2022/04/16 10:20:58;;;;;;;33.78;27.90;;;15.10;99.90;;;;;;4917867;29;20059;-74
2022/04/16 10:23:26;;;;;;;34.25;27.85;;;15.10;99.90;;;;;;4908667;29;20058;-73
2022/04/16 10:26:03;;;;;;;33.20;27.80;;;15.10;99.90;;;;;;4918241;29;20047;-73
2022/04/16 10:28:38;;;;;;;31.60;25.73;;;15.10;99.90;;;;;;4917803;29;20048;-76
2022/04/16 10:31:06;;;;;;;30.08;26.60;;;15.10;99.90;;;;;;4900097;29;20130;-74
2022/04/16 10:33:32;;;;;;;31.35;24.92;;;15.20;99.90;;;;;;4932083;29;20056;-76
2022/04/16 10:36:05;;;;;;;31.27;26.65;;;15.30;99.90;;;;;;4917916;29;20074;-76
2022/04/16 10:38:33;;;;;;;29.23;24.73;;;15.40;99.90;;;;;;4916238;29;20040;-71
2022/04/16 10:41:11;;;;;;;30.70;25.45;;;15.40;99.90;;;;;;4918821;29;20071;-69
2022/04/16 10:43:54;;;;;;;31.75;25.15;;;15.30;99.90;;;;;;4916663;29;20095;-68
2022/04/16 10:46:21;;;;;;;26.92;22.83;;;15.40;99.90;;;;;;4917867;29;20055;-68
2022/04/16 10:48:48;;;;;;;30.50;23.58;;;15.40;99.90;;;;;;4916805;29;20043;-64
2022/04/16 10:51:19;;;;;;;25.40;20.10;;;15.40;99.90;;;;;;4917217;29;20124;-64
2022/04/16 10:53:46;;;;;;;23.33;20.63;;;15.40;99.90;;;;;;4918292;29;20147;-63
2022/04/16 10:56:20;;;;;;;25.23;22.25;;;15.50;99.90;;;;;;4917175;29;20052;-64
2022/04/16 10:58:59;;;;;;;23.73;21.17;;;15.50;99.90;;;;;;4917271;29;20044;-65
2022/04/16 11:01:27;;;;;;;34.13;27.42;;;15.50;99.90;;;;;;4916569;29;20052;-68
2022/04/16 11:03:55;;;;;;;24.25;19.25;;;15.60;99.90;;;;;;4915691;29;20496;-64
2022/04/16 11:06:34;;;;;;;24.70;19.23;;;15.70;97.40;;;;;;4886008;29;20052;-63
2022/04/16 11:09:01;;;;;;;21.80;17.10;;;15.80;97.70;;;;;;4916959;29;20409;-69
2022/04/16 11:11:27;;;;;;;23.45;17.30;;;15.80;94.60;;;;;;4930745;29;20055;-63
2022/04/16 11:13:56;;;;;;;16.75;13.90;;;15.90;94.10;;;;;;4916524;29;20056;-67
2022/04/16 11:16:23;;;;;;;16.67;13.55;;;15.90;89.50;;;;;;4915433;29;20048;-65
2022/04/16 11:18:50;;;;;;;19.40;16.02;;;15.90;90.00;;;;;;4917324;29;20111;-67
2022/04/16 11:21:24;;;;;;;19.52;15.40;;;16.00;89.70;;;;;;4917671;29;20048;-68
2022/04/16 11:23:52;;;;;;;16.60;14.75;;;16.00;88.90;;;;;;4918379;29;20052;-68
2022/04/16 11:34:44;;;;;;;19.70;17.35;;;16.20;88.20;;;;;;4917380;29;20052;-81
2022/04/16 11:37:29;;;;;;;18.33;16.30;;;16.20;88.20;;;;;;4916940;29;20073;-68
2022/04/16 11:40:05;;;;;;;20.55;17.30;;;16.40;89.40;;;;;;4918240;29;20048;-68
2022/04/16 11:42:32;;;;;;;18.45;16.13;;;16.30;86.90;;;;;;4902437;29;20055;-68
2022/04/16 11:44:59;;;;;;;20.52;18.33;;;16.40;88.70;;;;;;4917986;29;20052;-68
2022/04/16 11:47:32;;;;;;;20.52;16.92;;;16.40;87.20;;;;;;4889521;29;20131;-69
2022/04/16 11:50:05;;;;;;;22.23;18.58;;;16.40;89.80;;;;;;4898317;29;20048;-68
2022/04/16 11:52:33;;;;;;;26.80;21.83;;;16.50;90.60;;;;;;4899247;29;20135;-68
2022/04/16 11:55:03;;;;;;;22.92;20.52;;;16.50;90.30;;;;;;4897639;29;20065;-68
2022/04/16 11:57:31;;;;;;;25.95;21.10;;;16.50;91.70;;;;;;4899288;29;20052;-68
2022/04/16 12:00:08;;;;;;;37.65;24.20;;;16.60;92.00;;;;;;4893949;29;20060;-68
2022/04/16 12:02:36;;;;;;;33.25;22.40;;;16.70;92.80;;;;;;4912401;29;20508;-68
2022/04/16 12:05:07;;;;;;;27.13;24.23;;;16.70;92.50;;;;;;4921016;29;20384;-68
2022/04/16 12:07:34;;;;;;;32.10;25.20;;;16.60;92.90;;;;;;4936419;29;20043;-68
2022/04/16 12:10:02;;;;;;;30.17;21.77;;;16.60;94.20;;;;;;4935472;29;20078;-68
2022/04/16 12:12:29;;;;;;;28.98;22.10;;;16.60;94.00;;;;;;4935377;29;20507;-68
2022/04/16 12:14:56;;;;;;;24.98;21.33;;;16.70;94.70;;;;;;4921375;29;20052;-68
2022/04/16 12:17:24;;;;;;;29.00;22.10;;;16.70;93.20;;;;;;4915994;29;20044;-68
2022/04/16 12:20:04;;;;;;;35.88;29.27;;;16.70;94.10;;;;;;4915716;29;20044;-68
2022/04/16 12:22:32;;;;;;;27.67;24.17;;;16.80;93.90;;;;;;4900687;29;20063;-67
2022/04/16 12:25:13;;;;;;;24.65;20.67;;;16.90;93.40;;;;;;4914911;29;20172;-68
2022/04/16 12:27:44;;;;;;;26.75;20.75;;;16.90;91.60;;;;;;4916717;29;20075;-67
2022/04/16 12:30:24;;;;;;;28.75;20.60;;;17.00;92.10;;;;;;4917825;29;20610;-67
2022/04/16 12:33:11;;;;;;;23.70;21.15;;;17.00;91.00;;;;;;4915521;29;20056;-67
2022/04/16 12:35:40;;;;;;;26.48;20.67;;;17.00;90.40;;;;;;4898495;29;20075;-66
2022/04/16 12:38:07;;;;;;;25.83;20.20;;;17.00;90.30;;;;;;4921423;29;20048;-67
2022/04/16 12:40:34;;;;;;;25.38;22.55;;;16.90;90.90;;;;;;4915308;29;20051;-67
2022/04/16 12:43:02;;;;;;;27.50;22.63;;;16.90;91.10;;;;;;4914221;29;20055;-69
2022/04/16 12:45:32;;;;;;;29.85;21.30;;;16.90;92.50;;;;;;4916296;29;20059;-67
2022/04/16 12:47:59;;;;;;;25.83;21.70;;;17.00;91.00;;;;;;4914854;29;20072;-67
2022/04/16 12:50:26;;;;;;;27.10;19.25;;;17.10;91.40;;;;;;4899083;29;20507;-65
2022/04/16 12:52:53;;;;;;;24.20;21.42;;;17.20;91.40;;;;;;4916393;29;20052;-64
2022/04/16 12:55:20;;;;;;;24.25;20.02;;;17.20;90.10;;;;;;4914624;29;20060;-68
2022/04/16 12:57:47;;;;;;;30.92;21.00;;;17.10;90.40;;;;;;4914974;29;20380;-64
2022/04/16 13:00:15;;;;;;;32.42;26.27;;;17.20;90.40;;;;;;4916052;29;20055;-66
2022/04/16 13:02:43;;;;;;;28.17;23.70;;;17.20;90.60;;;;;;4913798;29;20070;-64
2022/04/16 13:05:12;;;;;;;108.67;82.40;;;17.30;92.10;;;;;;4914852;29;20044;-68